createdAt,value
2024-02-28T00:01:08.975Z,30.05
2024-02-28T00:03:44.841Z,27.67
2024-02-28T00:06:15.101Z,30.67
2024-02-28T00:08:45.422Z,27.65
2024-02-28T00:11:19.298Z,29.05
2024-02-28T00:13:51.315Z,31.40
2024-02-28T00:16:22.665Z,33.13
2024-02-28T00:18:57.113Z,29.40
2024-02-28T00:21:27.800Z,32.50
2024-02-28T00:24:00.150Z,30.40
2024-02-28T00:26:35.273Z,36.97
2024-02-28T00:29:06.926Z,33.13
2024-02-28T00:31:40.647Z,29.58
2024-02-28T00:34:15.952Z,28.42
2024-02-28T00:36:55.110Z,29.58
2024-02-28T00:39:29.116Z,29.95
2024-02-28T00:42:02.898Z,29.83
2024-02-28T00:44:35.548Z,30.33
2024-02-28T00:47:07.389Z,30.73
2024-02-28T00:49:40.040Z,30.35
2024-02-28T00:52:13.412Z,27.17
2024-02-28T00:54:45.212Z,31.17
2024-02-28T00:57:18.310Z,29.80
2024-02-28T00:59:49.245Z,29.45
2024-02-28T01:02:23.207Z,28.13
2024-02-28T01:04:56.621Z,26.35
2024-02-28T01:07:29.093Z,30.10
2024-02-28T01:10:02.126Z,30.42
2024-02-28T01:12:37.191Z,29.13
2024-02-28T01:15:08.753Z,28.48
2024-02-28T01:17:41.334Z,26.20
2024-02-28T01:20:14.036Z,24.85
2024-02-28T01:22:47.920Z,27.50
2024-02-28T01:25:18.689Z,26.30
2024-02-28T01:27:51.781Z,26.25
2024-02-28T01:30:26.187Z,24.40
2024-02-28T01:32:57.532Z,22.23
2024-02-28T01:35:28.068Z,22.90
2024-02-28T01:37:59.595Z,25.52
2024-02-28T01:40:32.439Z,25.60
2024-02-28T01:43:15.156Z,26.10
2024-02-28T01:45:50.153Z,28.05
2024-02-28T01:48:24.353Z,25.83
2024-02-28T01:50:56.438Z,24.75
2024-02-28T01:53:29.809Z,27.13
2024-02-28T01:56:02.455Z,26.33
2024-02-28T01:58:38.817Z,30.08
2024-02-28T02:01:09.468Z,25.83
2024-02-28T02:03:39.853Z,27.05
2024-02-28T02:06:14.011Z,29.38
2024-02-28T02:08:45.704Z,28.60
2024-02-28T02:11:20.342Z,28.20
2024-02-28T02:13:57.922Z,29.23
2024-02-28T02:16:33.573Z,27.70
2024-02-28T02:19:04.168Z,29.33
2024-02-28T02:21:35.199Z,32.28
2024-02-28T02:24:09.360Z,29.45
2024-02-28T02:26:42.533Z,30.23
2024-02-28T02:29:10.783Z,28.67
2024-02-28T02:31:43.110Z,30.48
2024-02-28T02:34:15.744Z,30.77
2024-02-28T02:36:47.480Z,29.95
2024-02-28T02:39:20.663Z,31.65
2024-02-28T02:41:51.592Z,30.75
2024-02-28T02:44:30.316Z,32.30
2024-02-28T02:47:02.445Z,33.35
2024-02-28T02:49:32.985Z,34.72
2024-02-28T02:52:05.449Z,31.90
2024-02-28T02:54:42.621Z,31.30
2024-02-28T02:57:15.076Z,28.00
2024-02-28T02:59:45.044Z,29.45
2024-02-28T03:02:15.464Z,33.03
2024-02-28T03:04:45.381Z,30.35
2024-02-28T03:07:19.347Z,30.20
2024-02-28T03:09:51.908Z,30.50
2024-02-28T03:12:23.094Z,31.40
2024-02-28T03:14:53.162Z,29.92
2024-02-28T03:17:24.320Z,31.15
2024-02-28T03:19:56.334Z,31.08
2024-02-28T03:22:26.761Z,32.15
2024-02-28T03:25:00.536Z,34.63
2024-02-28T03:27:31.100Z,32.33
2024-02-28T03:30:01.292Z,29.17
2024-02-28T03:32:32.357Z,28.10
2024-02-28T03:35:03.282Z,33.45
2024-02-28T03:37:36.046Z,29.92
2024-02-28T03:40:09.765Z,29.55
2024-02-28T03:42:40.721Z,34.67
2024-02-28T03:45:11.793Z,32.80
2024-02-28T03:47:43.631Z,32.30
2024-02-28T03:50:13.664Z,33.65
2024-02-28T03:52:44.559Z,31.27
2024-02-28T03:55:17.405Z,32.53
2024-02-28T03:57:53.628Z,30.42
2024-02-28T04:00:24.169Z,27.33
2024-02-28T04:02:56.292Z,28.33
2024-02-28T04:05:27.522Z,29.90
2024-02-28T04:07:58.075Z,30.77
2024-02-28T04:10:31.216Z,30.60
2024-02-28T04:13:05.538Z,26.58
2024-02-28T04:15:36.887Z,28.77
2024-02-28T04:18:07.639Z,30.15
2024-02-28T04:20:39.712Z,29.48
2024-02-28T04:23:09.651Z,28.65
2024-02-28T04:25:44.995Z,34.13
2024-02-28T04:28:15.956Z,27.27
2024-02-28T04:30:47.403Z,30.13
2024-02-28T04:33:17.423Z,29.23
2024-02-28T04:35:48.751Z,31.70
2024-02-28T04:38:19.510Z,30.98
2024-02-28T04:40:53.686Z,30.08
2024-02-28T04:43:23.982Z,29.25
2024-02-28T04:45:53.935Z,31.95
2024-02-28T04:48:24.020Z,32.28
2024-02-28T04:50:55.367Z,32.10
2024-02-28T04:53:25.796Z,32.00
2024-02-28T04:55:58.349Z,35.63
2024-02-28T04:58:29.198Z,35.42
2024-02-28T05:01:00.596Z,36.60
2024-02-28T05:03:31.814Z,33.58
2024-02-28T05:06:04.729Z,36.95
2024-02-28T05:08:34.696Z,35.95
2024-02-28T05:11:07.420Z,35.08
2024-02-28T05:13:39.564Z,33.53
2024-02-28T05:16:17.462Z,34.20
2024-02-28T05:18:50.798Z,33.75
2024-02-28T05:21:22.060Z,40.30
2024-02-28T05:23:54.294Z,39.47
2024-02-28T05:26:28.531Z,37.78
2024-02-28T05:29:00.889Z,40.25
2024-02-28T05:31:32.767Z,42.85
2024-02-28T05:34:03.970Z,41.58
2024-02-28T05:36:35.146Z,37.03
2024-02-28T05:39:07.135Z,33.10
2024-02-28T05:41:42.914Z,34.17
2024-02-28T05:44:13.374Z,38.85
2024-02-28T05:46:44.642Z,39.03
2024-02-28T05:49:14.596Z,36.65
2024-02-28T05:51:44.608Z,37.03
2024-02-28T05:54:14.743Z,36.50
2024-02-28T05:56:50.974Z,37.83
2024-02-28T05:59:22.007Z,38.15
2024-02-28T06:01:52.022Z,41.47
2024-02-28T06:04:24.662Z,38.47
2024-02-28T06:07:00.189Z,39.28
2024-02-28T06:09:31.484Z,35.45
2024-02-28T06:12:04.693Z,37.88
2024-02-28T06:14:34.623Z,42.08
2024-02-28T06:17:05.403Z,41.70
2024-02-28T06:19:35.355Z,38.40
2024-02-28T06:22:06.266Z,39.83
2024-02-28T06:24:38.201Z,41.47
2024-02-28T06:27:15.081Z,46.88
2024-02-28T06:29:47.363Z,39.65
2024-02-28T06:32:19.665Z,41.50
2024-02-28T06:34:49.600Z,40.58
2024-02-28T06:37:23.039Z,37.40
2024-02-28T06:39:53.074Z,42.90
2024-02-28T06:42:26.776Z,40.50
2024-02-28T06:44:56.920Z,32.10
2024-02-28T06:47:28.005Z,38.08
2024-02-28T06:49:59.003Z,36.13
2024-02-28T06:52:31.440Z,39.28
2024-02-28T06:55:07.445Z,36.75
2024-02-28T06:57:43.298Z,33.13
2024-02-28T07:00:16.319Z,31.33
2024-02-28T07:02:47.362Z,31.67
2024-02-28T07:05:19.212Z,37.92
2024-02-28T07:07:49.701Z,36.80
2024-02-28T07:10:21.471Z,39.72
2024-02-28T07:12:56.324Z,42.70
2024-02-28T07:15:27.245Z,34.78
2024-02-28T07:18:00.135Z,43.53
2024-02-28T07:20:30.887Z,43.38
2024-02-28T07:23:00.821Z,40.80
2024-02-28T07:25:33.738Z,42.25
2024-02-28T07:28:08.351Z,44.03
2024-02-28T07:30:38.460Z,45.25
2024-02-28T07:33:09.799Z,40.55
2024-02-28T07:35:48.800Z,40.67
2024-02-28T07:38:21.558Z,40.72
2024-02-28T07:40:52.208Z,40.58
2024-02-28T07:43:24.840Z,35.67
2024-02-28T07:45:55.299Z,37.97
2024-02-28T07:48:25.278Z,41.70
2024-02-28T07:50:55.294Z,39.42
2024-02-28T07:53:25.709Z,37.45
2024-02-28T07:55:59.250Z,35.83
2024-02-28T07:58:32.328Z,34.78
2024-02-28T08:01:08.644Z,31.52
2024-02-28T08:03:38.932Z,34.95
2024-02-28T08:06:12.631Z,31.20
2024-02-28T08:08:42.706Z,31.02
2024-02-28T08:11:15.006Z,35.00
2024-02-28T08:13:47.625Z,29.88
2024-02-28T08:16:19.777Z,33.83
2024-02-28T08:18:49.798Z,33.50
2024-02-28T08:21:19.953Z,28.23
2024-02-28T08:23:49.934Z,32.95
2024-02-28T08:26:19.998Z,31.33
2024-02-28T08:28:54.989Z,30.30
2024-02-28T08:31:24.956Z,34.15
2024-02-28T08:33:57.722Z,31.25
2024-02-28T08:36:30.662Z,32.47
2024-02-28T08:39:00.992Z,30.33
2024-02-28T08:41:31.568Z,28.45
2024-02-28T08:44:05.507Z,32.63
2024-02-28T08:46:37.797Z,33.42
2024-02-28T08:49:08.349Z,32.35
2024-02-28T08:51:39.262Z,35.15
2024-02-28T08:54:11.120Z,32.33
2024-02-28T08:56:49.773Z,38.15
2024-02-28T08:59:26.673Z,33.42
2024-02-28T09:01:57.175Z,34.92
2024-02-28T09:04:27.151Z,38.15
2024-02-28T09:06:57.642Z,35.03
2024-02-28T09:09:27.588Z,34.60
2024-02-28T09:11:59.018Z,35.10
2024-02-28T09:14:34.190Z,31.17
2024-02-28T09:17:06.177Z,31.52
2024-02-28T09:19:36.555Z,33.25
2024-02-28T09:22:07.094Z,36.33
2024-02-28T09:24:37.828Z,35.70
2024-02-28T09:27:08.607Z,36.85
2024-02-28T09:29:43.328Z,39.17
2024-02-28T09:32:15.204Z,38.42
2024-02-28T09:34:45.119Z,37.45
2024-02-28T09:37:16.190Z,35.13
2024-02-28T09:39:48.962Z,40.70
2024-02-28T09:42:20.191Z,39.70
2024-02-28T09:44:53.822Z,38.42
2024-02-28T09:47:24.291Z,42.20
2024-02-28T09:49:53.527Z,36.17
2024-02-28T09:52:24.080Z,33.25
2024-02-28T09:54:54.123Z,34.75
2024-02-28T09:57:29.716Z,41.72
2024-02-28T10:00:06.718Z,37.80
2024-02-28T10:02:40.979Z,36.67
2024-02-28T10:05:12.341Z,37.28
2024-02-28T10:07:42.436Z,37.33
2024-02-28T10:10:12.644Z,35.83
2024-02-28T10:12:46.144Z,34.22
2024-02-28T10:15:18.945Z,35.25
2024-02-28T10:17:50.632Z,35.38
2024-02-28T10:20:20.982Z,33.95
2024-02-28T10:22:53.079Z,32.95
2024-02-28T10:25:29.091Z,33.42
2024-02-28T10:28:04.105Z,31.92
2024-02-28T10:30:37.204Z,34.72
2024-02-28T10:33:08.230Z,29.17
2024-02-28T10:35:40.413Z,32.45
2024-02-28T10:38:11.347Z,36.35
2024-02-28T10:40:44.662Z,32.83
2024-02-28T10:43:15.475Z,31.90
2024-02-28T10:46:06.911Z,31.45
2024-02-28T10:48:39.555Z,31.60
2024-02-28T10:51:17.017Z,33.15
2024-02-28T10:53:50.078Z,34.05
2024-02-28T10:56:24.127Z,32.55
2024-02-28T10:58:56.364Z,26.13
2024-02-28T11:01:29.224Z,31.35
2024-02-28T11:04:00.892Z,29.58
2024-02-28T11:06:31.351Z,30.73
2024-02-28T11:09:04.510Z,27.48
2024-02-28T11:11:35.633Z,31.67
2024-02-28T11:14:06.705Z,31.45
2024-02-28T11:16:39.685Z,28.75
2024-02-28T11:22:43.412Z,26.60
2024-02-28T11:25:14.281Z,27.83
2024-02-28T11:27:51.588Z,26.23
2024-02-28T11:30:23.265Z,26.38
2024-02-28T11:33:05.618Z,29.05
2024-02-28T11:35:38.918Z,24.08
2024-02-28T11:38:11.445Z,24.80
2024-02-28T11:40:43.029Z,23.15
2024-02-28T11:43:13.842Z,26.65
2024-02-28T11:45:45.227Z,20.92
2024-02-28T11:48:18.816Z,22.55
2024-02-28T11:50:51.263Z,29.92
2024-02-28T11:53:21.624Z,23.35
2024-02-28T11:55:52.153Z,23.48
2024-02-28T11:58:22.168Z,19.13
2024-02-28T12:00:56.012Z,19.15
2024-02-28T12:03:29.471Z,20.55
2024-02-28T12:06:00.908Z,18.17
2024-02-28T12:08:31.969Z,17.38
2024-02-28T12:11:11.692Z,17.30
2024-02-28T12:13:41.914Z,19.30
2024-02-28T12:16:15.002Z,15.07
2024-02-28T12:18:48.211Z,16.27
2024-02-28T12:21:18.181Z,17.98
2024-02-28T12:23:48.136Z,13.52
2024-02-28T12:26:18.090Z,12.77
2024-02-28T12:28:47.991Z,12.50
2024-02-28T12:31:19.516Z,11.45
2024-02-28T12:33:54.628Z,10.25
2024-02-28T12:36:25.822Z,9.85
2024-02-28T12:38:58.189Z,10.27
2024-02-28T12:41:31.265Z,9.52
2024-02-28T12:44:01.257Z,8.77
2024-02-28T12:46:33.329Z,10.77
2024-02-28T12:49:06.234Z,8.55
2024-02-28T12:51:45.676Z,8.18
2024-02-28T12:54:16.551Z,7.32
2024-02-28T12:56:47.805Z,7.95
2024-02-28T12:59:17.846Z,7.95
2024-02-28T13:01:49.761Z,7.07
2024-02-28T13:04:26.843Z,6.85
2024-02-28T13:09:32.854Z,9.32
2024-02-28T13:12:04.025Z,7.20
2024-02-28T13:14:34.180Z,7.32
2024-02-28T13:17:07.265Z,7.60
2024-02-28T13:19:39.738Z,7.03
2024-02-28T13:22:10.252Z,7.03
2024-02-28T13:24:41.458Z,6.72
2024-02-28T13:27:11.538Z,7.22
2024-02-28T13:29:41.427Z,6.15
2024-02-28T13:32:11.807Z,4.72
2024-02-28T13:34:47.585Z,4.97
2024-02-28T13:37:19.952Z,4.20
2024-02-28T13:39:53.253Z,4.65
2024-02-28T13:42:27.878Z,3.97
2024-02-28T13:44:58.601Z,4.85
2024-02-28T13:47:31.323Z,4.30
2024-02-28T13:50:03.898Z,4.70
2024-02-28T13:52:33.934Z,3.80
2024-02-28T13:55:04.641Z,4.25
2024-02-28T13:57:34.760Z,4.53
2024-02-28T14:00:10.113Z,5.22
2024-02-28T14:02:40.983Z,3.63
2024-02-28T14:05:13.659Z,3.35
2024-02-28T14:07:45.829Z,4.47
2024-02-28T14:10:18.429Z,3.92
2024-02-28T14:12:50.334Z,3.33
2024-02-28T14:15:21.546Z,4.70
2024-02-28T14:17:52.647Z,3.10
2024-02-28T14:20:25.890Z,3.45
2024-02-28T14:22:59.369Z,2.97
2024-02-28T14:25:32.433Z,3.53
2024-02-28T14:28:02.923Z,4.13
2024-02-28T14:30:35.657Z,3.83
2024-02-28T14:33:11.646Z,4.78
2024-02-28T14:35:46.388Z,2.65
2024-02-28T14:38:16.745Z,4.07
2024-02-28T14:40:49.542Z,4.57
2024-02-28T14:43:19.876Z,3.30
2024-02-28T14:45:50.636Z,4.75
2024-02-28T14:48:23.538Z,2.90
2024-02-28T14:50:56.545Z,4.18
2024-02-28T14:53:28.988Z,3.05
2024-02-28T14:55:59.465Z,4.05
2024-02-28T14:58:29.407Z,3.75
2024-02-28T15:01:01.672Z,4.25
2024-02-28T15:03:32.388Z,6.22
2024-02-28T15:06:09.813Z,3.67
2024-02-28T15:08:40.427Z,3.47
2024-02-28T15:11:11.964Z,3.63
2024-02-28T15:13:43.202Z,4.55
2024-02-28T15:16:13.525Z,4.90
2024-02-28T15:18:45.712Z,4.45
2024-02-28T15:21:18.245Z,2.72
2024-02-28T15:23:50.026Z,3.72
2024-02-28T15:26:31.559Z,5.15
2024-02-28T15:29:13.642Z,4.65
2024-02-28T15:31:46.256Z,8.32
2024-02-28T15:34:18.116Z,4.15
2024-02-28T15:36:51.182Z,4.28
2024-02-28T15:39:21.121Z,4.20
2024-02-28T15:41:53.097Z,4.47
2024-02-28T15:44:24.194Z,4.50
2024-02-28T15:46:54.260Z,4.10
2024-02-28T15:49:33.013Z,4.65
2024-02-28T15:52:13.711Z,3.25
2024-02-28T15:54:43.746Z,4.30
2024-02-28T15:57:14.606Z,4.55
2024-02-28T15:59:47.002Z,5.43
2024-02-28T16:02:17.633Z,3.47
2024-02-28T16:04:49.958Z,4.25
2024-02-28T16:07:24.674Z,4.20
2024-02-28T16:09:57.968Z,3.42
2024-02-28T16:12:28.863Z,3.42
2024-02-28T16:14:59.194Z,3.05
2024-02-28T16:17:30.632Z,4.03
2024-02-28T16:20:03.734Z,3.75
2024-02-28T16:22:36.726Z,6.40
2024-02-28T16:25:07.967Z,2.15
2024-02-28T16:27:40.105Z,2.47
2024-02-28T16:30:12.117Z,3.22
2024-02-28T16:32:44.202Z,2.38
2024-02-28T16:35:14.201Z,3.15
2024-02-28T16:37:49.096Z,4.43
2024-02-28T16:40:20.246Z,5.40
2024-02-28T16:42:50.608Z,2.47
2024-02-28T16:45:20.496Z,2.92
2024-02-28T16:47:52.299Z,3.00
2024-02-28T16:50:22.315Z,2.78
2024-02-28T16:52:55.573Z,6.35
2024-02-28T16:55:26.129Z,5.90
2024-02-28T16:57:56.260Z,7.45
2024-02-28T17:00:26.441Z,8.05
2024-02-28T17:02:57.582Z,4.28
2024-02-28T17:05:27.466Z,4.93
2024-02-28T17:08:02.878Z,4.40
2024-02-28T17:10:34.526Z,4.07
2024-02-28T17:13:05.694Z,4.65
2024-02-28T17:15:37.811Z,5.90
2024-02-28T17:18:08.939Z,6.00
2024-02-28T17:20:40.982Z,5.18
2024-02-28T17:23:14.228Z,4.45
2024-02-28T17:25:44.123Z,7.32
2024-02-28T17:28:16.229Z,11.93
2024-02-28T17:30:47.412Z,5.82
2024-02-28T17:33:17.669Z,5.75
2024-02-28T17:35:49.267Z,8.68
2024-02-28T17:38:23.125Z,4.10
2024-02-28T17:40:55.428Z,3.55
2024-02-28T17:43:30.085Z,5.05
2024-02-28T17:46:04.904Z,4.57
2024-02-28T17:48:40.071Z,8.38
2024-02-28T17:51:11.801Z,6.70
2024-02-28T17:53:44.442Z,4.43
2024-02-28T17:56:16.259Z,6.28
2024-02-28T17:58:48.622Z,6.00
2024-02-28T18:01:19.668Z,5.60
2024-02-28T18:03:53.319Z,7.00
2024-02-28T18:06:25.306Z,7.55
2024-02-28T18:09:00.008Z,5.88
2024-02-28T18:11:32.441Z,7.18
2024-02-28T18:14:08.279Z,6.43
2024-02-28T18:16:40.665Z,7.75
2024-02-28T18:19:14.666Z,7.00
2024-02-28T18:21:44.715Z,9.45
2024-02-28T18:24:21.974Z,6.95
2024-02-28T18:29:24.627Z,6.18
2024-02-28T18:32:03.284Z,6.57
2024-02-28T18:34:36.554Z,8.30
2024-02-28T18:37:08.329Z,7.97
2024-02-28T18:39:47.244Z,8.30
2024-02-28T18:42:20.220Z,9.38
2024-02-28T18:44:57.726Z,8.20
2024-02-28T18:47:28.046Z,8.52
2024-02-28T18:50:01.258Z,11.48
2024-02-28T18:52:31.661Z,8.73
2024-02-28T18:55:11.007Z,10.45
2024-02-28T18:57:44.305Z,10.45
2024-02-28T19:00:24.835Z,9.18
2024-02-28T19:03:01.157Z,10.77
2024-02-28T19:05:32.723Z,12.40
2024-02-28T19:08:03.929Z,12.43
2024-02-28T19:10:36.928Z,8.90
2024-02-28T19:13:11.795Z,10.25
2024-02-28T19:15:41.782Z,12.32
2024-02-28T19:18:12.985Z,10.30
2024-02-28T19:20:45.274Z,18.40
2024-02-28T19:23:15.302Z,11.35
2024-02-28T19:25:56.687Z,14.00
2024-02-28T19:28:35.237Z,9.48
2024-02-28T19:31:06.654Z,9.95
2024-02-28T19:33:40.267Z,9.48
2024-02-28T19:36:15.678Z,8.68
2024-02-28T19:38:46.435Z,8.13
2024-02-28T19:41:21.307Z,8.57
2024-02-28T19:43:51.164Z,7.78
2024-02-28T19:46:23.296Z,7.55
2024-02-28T19:48:54.930Z,9.30
2024-02-28T19:51:28.013Z,10.98
2024-02-28T19:53:59.362Z,10.30
2024-02-28T19:56:33.437Z,11.65
2024-02-28T19:59:06.116Z,11.95
2024-02-28T20:01:43.784Z,13.57
2024-02-28T20:04:18.711Z,10.23
2024-02-28T20:06:52.582Z,11.65
2024-02-28T20:09:24.435Z,8.40
2024-02-28T20:11:58.243Z,11.10
2024-02-28T20:14:30.571Z,9.70
2024-02-28T20:17:01.849Z,9.48
2024-02-28T20:19:33.335Z,11.48
2024-02-28T20:22:04.616Z,9.02
2024-02-28T20:24:35.204Z,9.63
2024-02-28T20:27:10.449Z,9.75
2024-02-28T20:29:42.490Z,11.07
2024-02-28T20:32:16.734Z,9.05
2024-02-28T20:34:48.735Z,7.43
2024-02-28T20:37:19.864Z,8.48
2024-02-28T20:39:51.235Z,10.52
2024-02-28T20:42:24.521Z,12.45
2024-02-28T20:44:54.935Z,12.30
2024-02-28T20:47:24.824Z,11.95
2024-02-28T20:49:55.148Z,11.80
2024-02-28T20:52:26.121Z,11.68
2024-02-28T20:54:58.234Z,13.00
2024-02-28T20:57:30.921Z,11.27
2024-02-28T21:00:04.969Z,10.30
2024-02-28T21:02:36.011Z,12.30
2024-02-28T21:05:07.988Z,10.55
2024-02-28T21:07:48.347Z,10.20
2024-02-28T21:10:23.653Z,12.38
2024-02-28T21:12:57.034Z,10.35
2024-02-28T21:15:33.416Z,11.57
2024-02-28T21:18:05.214Z,11.35
2024-02-28T21:20:38.545Z,11.50
2024-02-28T21:23:10.275Z,10.80
2024-02-28T21:25:42.100Z,12.13
2024-02-28T21:28:16.732Z,12.80
2024-02-28T21:30:49.751Z,9.65
2024-02-28T21:33:22.191Z,11.60
2024-02-28T21:35:53.137Z,10.45
2024-02-28T21:38:23.067Z,10.50
2024-02-28T21:40:53.022Z,9.88
2024-02-28T21:43:27.264Z,9.95
2024-02-28T21:45:58.593Z,11.10
2024-02-28T21:48:33.237Z,10.57
2024-02-28T21:51:05.169Z,9.90
2024-02-28T21:53:35.027Z,10.00
2024-02-28T21:56:07.163Z,8.10
2024-02-28T21:58:41.886Z,11.93
2024-02-28T22:01:11.867Z,8.88
2024-02-28T22:03:42.380Z,13.45
2024-02-28T22:06:13.651Z,11.10
2024-02-28T22:08:44.654Z,12.27
2024-02-28T22:11:14.902Z,9.98
2024-02-28T22:13:47.459Z,10.85
2024-02-28T22:16:19.817Z,12.90
2024-02-28T22:18:50.808Z,15.93
2024-02-28T22:21:20.807Z,15.07
2024-02-28T22:23:50.699Z,13.27
2024-02-28T22:26:23.876Z,13.52
2024-02-28T22:29:02.510Z,14.05
2024-02-28T22:31:33.103Z,14.95
2024-02-28T22:34:11.748Z,11.77
2024-02-28T22:36:42.797Z,11.45
2024-02-28T22:39:13.482Z,12.75
2024-02-28T22:41:45.282Z,10.90
2024-02-28T22:44:22.944Z,10.68
2024-02-28T22:46:55.768Z,14.20
2024-02-28T22:49:25.779Z,12.80
2024-02-28T22:51:56.042Z,10.98
2024-02-28T22:54:31.901Z,13.05
2024-02-28T22:57:01.873Z,12.25
2024-02-28T22:59:34.663Z,14.93
2024-02-28T23:02:07.685Z,12.73
2024-02-28T23:04:42.402Z,14.80
2024-02-28T23:07:13.336Z,11.68
2024-02-28T23:09:46.598Z,11.15
2024-02-28T23:12:19.114Z,13.35
2024-02-28T23:14:52.663Z,11.93
2024-02-28T23:17:22.564Z,13.30
2024-02-28T23:19:54.005Z,13.98
2024-02-28T23:22:23.938Z,17.10
2024-02-28T23:24:54.456Z,14.30
2024-02-28T23:27:27.280Z,12.70
2024-02-28T23:30:05.676Z,11.70
2024-02-28T23:32:38.096Z,11.07
2024-02-28T23:35:14.091Z,10.88
2024-02-28T23:37:45.481Z,17.50
2024-02-28T23:40:19.320Z,14.38
2024-02-28T23:42:52.232Z,11.93
2024-02-28T23:45:24.731Z,13.27
2024-02-28T23:47:59.467Z,14.10
2024-02-28T23:50:32.429Z,14.18
2024-02-28T23:53:05.190Z,13.50
2024-02-28T23:55:36.937Z,14.40
2024-02-28T23:58:09.384Z,11.23
